Nearby METAR Reports

 

KMTN - Baltimore/Martin, Maryland, USA
Distance from station: SSE 8mi, 13km
Updated: Thu, 24-Apr-2014 5:50pm EDT
Few Clouds
Few Clouds
 Wind from W
Wind: W 12 mph , 19 km/h, Gust: 22 mph , 35 km/h
Temperature: 64°F , 18°C
Dew Point: 25°F , -4°C
Humidity: 22%
Barometer: 30.01 inHg , 1016.3 hPa
Clouds: Few Clouds
Visibility: 10 miles , 16 km
Cloud details: Few Clouds 18000 ft
2014/04/24 21:50 KMTN 242150Z 28010G19KT 10SM FEW180 18/M04 A3001
KDMH - Baltimore/Dwntwn, Maryland, USA
Distance from station: SW 12mi, 19km
Updated: Thu, 24-Apr-2014 5:54pm EDT

 
Temperature: 63°F , 17°C
Dew Point: 16°F , -9°C
Humidity: 16%
Barometer: 30.00 inHg , 1015.9 hPa
2014/04/24 21:54 KDMH 242154Z AUTO 17/M09 A3000 RMK AO1 SLP160 T01721089
 
KBWI - Balto/Wash Intl, Maryland, USA
Distance from station: SSW 20mi, 33km
Updated: Thu, 24-Apr-2014 5:54pm EDT
Partly cloudy
Partly cloudy
 Wind from NW
Wind: NW 10 mph , 17 km/h
Temperature: 63°F , 17°C
Dew Point: 19°F , -7°C
Humidity: 19%
Barometer: 29.99 inHg , 1015.6 hPa
Clouds: Partly cloudy
Visibility: 10 miles , 16 km
Cloud details: Few Clouds 18000 ft
Partly cloudy 25000 ft
2014/04/24 21:54 KBWI 242154Z 31009KT 10SM FEW180 SCT250 17/M07 A2999 RMK AO2 SLP157 T01721067
KDMW - Carroll Cnty, Maryland, USA
Distance from station: WNW 30mi, 48km
Updated: Thu, 24-Apr-2014 6:15pm EDT
Clear
Clear
 Wind from NW
Wind: NW 3 mph , 6 km/h
Temperature: 63°F , 17°C
Dew Point: 12°F , -11°C
Humidity: 14%
Barometer: 30.00 inHg , 1015.9 hPa
Clouds: Clear
Visibility: 10 miles , 16 km
2014/04/24 22:15 KDMW 242215Z AUTO 32003KT 10SM CLR 17/M11 A3000 RMK AO2
 
KNAK - Annapolis/Naval, Maryland, USA
Distance from station: S 30mi, 48km
Updated: Thu, 24-Apr-2014 5:54pm EDT
Clear
Clear
 Wind from NNW
Wind: NNW 9 mph , 15 km/h
Temperature: 63°F , 17°C
Dew Point: 28°F , -2°C
Humidity: 27%
Barometer: 30.00 inHg , 1015.9 hPa
Clouds: Clear
Visibility: 10 miles , 16 km
2014/04/24 21:54 KNAK 242154Z AUTO 33008KT 10SM CLR 17/M02 A3000 RMK AO2 SLP159 T01671022
KW29 - Stevensville, Maryland, USA
Distance from station: SSE 31mi, 50km
Updated: Thu, 24-Apr-2014 6:16pm EDT
Clear
Clear
 Wind from WNW
Wind: WNW 3 mph , 6 km/h
Temperature: 61°F , 16°C
Dew Point: 28°F , -2°C
Humidity: 29%
Barometer: 30.00 inHg , 1015.9 hPa
Clouds: Clear
Visibility: 10 miles , 16 km
2014/04/24 22:16 KW29 242216Z AUTO 29003KT 10SM CLR 16/M02 A3000 RMK AO1
 
KCGS - College Park, Maryland, USA
Distance from station: SW 38mi, 61km
Updated: Thu, 24-Apr-2014 6:15pm EDT
Clear
Clear
 Wind from NW
Wind: NW 3 mph , 6 km/h
Temperature: 63°F , 17°C
Dew Point: 21°F , -6°C
Humidity: 20%
Barometer: 30.01 inHg , 1016.3 hPa
Clouds: Clear
Visibility: 10 miles , 16 km
2014/04/24 22:15 KCGS 242215Z AUTO 32003KT 10SM CLR 17/M06 A3001 RMK AO1
KGAI - Gaithersburg, Maryland, USA
Distance from station: WSW 40mi, 65km
Updated: Thu, 24-Apr-2014 6:15pm EDT
Clear
Clear
 Wind from calm
Wind: Calm
Temperature: 61°F , 16°C
Dew Point: 23°F , -5°C
Humidity: 23%
Barometer: 30.03 inHg , 1016.9 hPa
Clouds: Clear
Visibility: 10 miles , 16 km
2014/04/24 22:15 KGAI 242215Z AUTO 00000KT 10SM CLR 16/M05 A3003 RMK AO1
 
KTHV - York, Pennsylvania, USA
Distance from station: NNW 40mi, 65km
Updated: Thu, 24-Apr-2014 5:53pm EDT
Clear
Clear
 Wind from calm
Wind: Calm
Temperature: 63°F , 17°C
Dew Point: 18°F , -8°C
Humidity: 17%
Barometer: 29.99 inHg , 1015.6 hPa
Clouds: Clear
Visibility: 10 miles , 16 km
2014/04/24 21:53 KTHV 242153Z AUTO 00000KT 10SM CLR 17/M08 A2999 RMK AO2 SLP159 T01671083
KFDK - Frederick, Maryland, USA
Distance from station: W 47mi, 75km
Updated: Thu, 24-Apr-2014 5:45pm EDT
Clear
Clear
 Wind from W
Wind: W 8 mph , 13 km/h
Temperature: 64°F , 18°C
Dew Point: 28°F , -2°C
Humidity: 26%
Barometer: 30.03 inHg , 1016.9 hPa
Clouds: Clear
Visibility: 10 miles , 16 km
2014/04/24 21:45 KFDK 242145Z 28007KT 10SM SKC 18/M02 A3003
 
KESN - Easton/Newnam, Maryland, USA
Distance from station: SSE 48mi, 78km
Updated: Thu, 24-Apr-2014 5:50pm EDT
Clear
Clear
 Wind from NNW
Wind: NNW 12 mph , 19 km/h, Gust: 23 mph , 37 km/h
Temperature: 63°F , 17°C
Dew Point: 27°F , -3°C
Humidity: 25%
Barometer: 30.04 inHg , 1017.3 hPa
Clouds: Clear
Visibility: 10 miles , 16 km
2014/04/24 21:50 KESN 242150Z 33010G20KT 10SM SKC 17/M03 A3004
KDCA - Washington/Natl, Washington D.c., USA
Distance from station: SW 49mi, 79km
Updated: Thu, 24-Apr-2014 5:52pm EDT
Mostly cloudy
Mostly cloudy
 Wind from NNW
Wind: NNW 9 mph , 15 km/h
Temperature: 64°F , 18°C
Dew Point: 23°F , -5°C
Humidity: 21%
Barometer: 30.02 inHg , 1016.6 hPa
Clouds: Mostly cloudy
Visibility: 10 miles , 16 km
Cloud details: Mostly cloudy 25000 ft
2014/04/24 21:52 KDCA 242152Z 34008KT 10SM BKN250 18/M05 A3002 RMK AO2 SLP164 T01781050
 
KLNS - Lancaster, Pennsylvania, USA
Distance from station: N 49mi, 79km
Updated: Thu, 24-Apr-2014 5:53pm EDT
Clear
Clear
 Wind from NW
Wind: NW 14 mph , 22 km/h
Temperature: 61°F , 16°C
Dew Point: 18°F , -8°C
Humidity: 19%
Barometer: 29.98 inHg , 1015.2 hPa
Clouds: Clear
Visibility: 10 miles , 16 km
2014/04/24 21:53 KLNS 242153Z 32012KT 10SM CLR 16/M08 A2998 RMK AO2 SLP152 T01611083
KILG - Wilmington, Delaware, USA
Distance from station: ENE 50mi, 81km
Updated: Thu, 24-Apr-2014 5:51pm EDT
Clear
Clear
 Wind from NW
Wind: NW 15 mph , 24 km/h
Temperature: 63°F , 17°C
Dew Point: 19°F , -7°C
Humidity: 19%
Barometer: 29.98 inHg , 1015.2 hPa
Clouds: Clear
Visibility: 10 miles , 16 km
2014/04/24 21:51 KILG 242151Z 32013KT 10SM CLR 17/M07 A2998 RMK AO2 SLP153 T01671067